Time;durP1;ratioP1;P1;durP2;ratioP2;P2;SDS_P1;SDS_P2;PMS_P1;PMS_P2;Temp;Humidity;BMP_temperature;BMP_pressure;BME280_temperature;BME280_humidity;BME280_pressure;Samples;Min_cycle;Max_cycle;Signal;HPM_P1;HPM_P2
2023/10/11 00:00:24;;;;;;;3.97;2.60;;;;;;;18.65;87.34;100394.25;5032182;28;20517;-67
2023/10/11 00:02:49;;;;;;;6.03;2.47;;;;;;;18.64;87.22;100388.03;5029346;28;20116;-67
2023/10/11 00:05:15;;;;;;;6.60;2.63;;;;;;;18.63;87.22;100391.19;5031820;28;20117;-67
2023/10/11 00:07:42;;;;;;;7.13;2.47;;;;;;;18.59;87.49;100401.38;5028693;28;20611;-67
2023/10/11 00:10:10;;;;;;;2.88;1.70;;;;;;;18.56;87.43;100400.25;5027019;28;20049;-67
2023/10/11 00:12:41;;;;;;;6.75;2.22;;;;;;;18.61;87.46;100390.81;5028646;28;20024;-66
2023/10/11 00:15:09;;;;;;;5.07;2.47;;;;;;;18.60;87.19;100400.97;5032518;28;20072;-67
2023/10/11 00:17:36;;;;;;;3.45;1.83;;;;;;;18.56;87.25;100388.59;5030949;28;20045;-67
2023/10/11 00:22:48;;;;;;;5.40;2.13;;;;;;;18.57;87.36;100392.84;5029337;28;20030;-67
2023/10/11 00:25:23;;;;;;;3.97;2.30;;;;;;;18.55;87.57;100379.63;5030503;28;20529;-66
2023/10/11 00:27:49;;;;;;;4.78;2.00;;;;;;;18.56;87.46;100381.16;5028579;28;20046;-66
2023/10/11 00:30:17;;;;;;;4.80;2.30;;;;;;;18.54;87.58;100377.31;5030848;28;20049;-67
2023/10/11 00:32:45;;;;;;;7.15;2.78;;;;;;;18.57;86.95;100373.75;5029345;28;20053;-66
2023/10/11 00:35:18;;;;;;;7.10;2.58;;;;;;;18.60;86.88;100370.19;5031385;28;20041;-67
2023/10/11 00:37:44;;;;;;;4.47;2.03;;;;;;;18.56;87.03;100366.75;5031025;28;20029;-66
2023/10/11 00:40:14;;;;;;;5.88;1.95;;;;;;;18.47;87.35;100369.22;5032940;28;20124;-66
2023/10/11 00:42:39;;;;;;;6.65;2.13;;;;;;;18.52;87.20;100368.78;5030322;28;20022;-66
2023/10/11 00:45:08;;;;;;;5.18;2.63;;;;;;;18.51;87.36;100353.56;5031665;28;20029;-66
2023/10/11 00:47:40;;;;;;;10.93;2.33;;;;;;;18.52;86.93;100352.41;5031249;28;20564;-66
2023/10/11 00:50:14;;;;;;;9.30;2.13;;;;;;;18.49;87.20;100354.00;5046590;28;20030;-66
2023/10/11 00:52:45;;;;;;;4.45;2.20;;;;;;;18.43;87.34;100358.38;5026885;28;20049;-66
2023/10/11 00:55:23;;;;;;;4.90;2.10;;;;;;;18.35;88.21;100353.44;5030864;28;20033;-66
2023/10/11 00:57:49;;;;;;;6.57;2.42;;;;;;;18.46;87.61;100352.13;5028454;28;20045;-67
2023/10/11 01:00:17;;;;;;;3.90;1.92;;;;;;;18.50;87.33;100362.97;5025787;28;20071;-63
2023/10/11 01:02:46;;;;;;;9.32;2.15;;;;;;;18.44;87.67;100362.66;5027429;28;20030;-66
2023/10/11 01:05:12;;;;;;;3.90;1.77;;;;;;;18.45;87.69;100353.28;5031075;28;20121;-66
2023/10/11 01:07:41;;;;;;;4.13;1.90;;;;;;;18.41;87.63;100349.81;5029132;28;20116;-66
2023/10/11 01:10:08;;;;;;;4.50;2.45;;;;;;;18.42;87.80;100353.31;5026426;28;20029;-66
2023/10/11 01:12:34;;;;;;;6.10;2.17;;;;;;;18.37;88.12;100357.28;5013071;28;20033;-67
2023/10/11 01:15:01;;;;;;;3.63;1.88;;;;;;;18.40;88.05;100350.22;5030302;28;20405;-66
2023/10/11 01:17:27;;;;;;;4.10;2.13;;;;;;;18.39;87.65;100352.19;5016199;28;20038;-67
2023/10/11 01:19:53;;;;;;;4.82;2.13;;;;;;;18.31;88.37;100341.81;5030489;28;20029;-68
2023/10/11 01:22:19;;;;;;;3.95;1.95;;;;;;;18.33;88.56;100339.47;5029563;28;20073;-67
2023/10/11 01:24:47;;;;;;;4.25;2.10;;;;;;;18.33;88.51;100344.91;5011123;28;20029;-65
2023/10/11 01:27:15;;;;;;;6.45;2.10;;;;;;;18.37;88.38;100337.44;5028555;28;20034;-67
2023/10/11 01:29:41;;;;;;;6.03;2.72;;;;;;;18.37;88.17;100338.19;5013292;28;20075;-66
2023/10/11 01:32:06;;;;;;;4.30;2.40;;;;;;;18.33;88.14;100323.09;5025320;28;20042;-67
2023/10/11 01:34:32;;;;;;;4.75;2.28;;;;;;;18.32;88.39;100327.00;5040182;28;20175;-67
2023/10/11 01:36:58;;;;;;;5.85;2.13;;;;;;;18.25;88.72;100335.31;5030112;28;20044;-67
2023/10/11 01:39:24;;;;;;;4.22;1.90;;;;;;;18.27;88.66;100335.66;5029386;28;20386;-67
2023/10/11 01:41:54;;;;;;;3.35;1.90;;;;;;;18.27;88.54;100330.19;5029371;28;20044;-68
2023/10/11 01:44:22;;;;;;;3.22;1.80;;;;;;;18.27;88.47;100322.03;5028831;28;20044;-67
2023/10/11 01:46:48;;;;;;;4.13;1.88;;;;;;;18.24;88.37;100322.84;5013025;28;20059;-67
2023/10/11 01:49:14;;;;;;;6.30;2.33;;;;;;;18.25;88.53;100324.38;5027205;28;20687;-67
2023/10/11 01:51:46;;;;;;;5.10;2.70;;;;;;;18.29;88.28;100328.59;5029595;28;20044;-67
2023/10/11 01:54:12;;;;;;;7.25;2.42;;;;;;;18.34;88.03;100321.91;5024676;28;20517;-67
2023/10/11 01:56:38;;;;;;;6.45;2.35;;;;;;;18.36;87.99;100327.69;5025589;28;20056;-67
2023/10/11 01:59:04;;;;;;;3.65;2.25;;;;;;;18.41;87.81;100328.00;5027809;28;20025;-67
2023/10/11 02:01:38;;;;;;;3.80;2.10;;;;;;;18.44;87.63;100323.72;5027775;28;20029;-66
2023/10/11 02:04:08;;;;;;;5.28;2.08;;;;;;;18.47;87.32;100303.78;5029887;28;20041;-67
2023/10/11 02:06:38;;;;;;;;;;;;;;;18.46;87.13;100307.69;5027129;28;20775;-68
2023/10/11 02:09:04;;;;;;;6.20;2.10;;;;;;;18.44;87.03;100307.34;5031492;28;20011;-67
2023/10/11 02:11:29;;;;;;;6.28;1.80;;;;;;;18.41;87.41;100303.44;5030138;28;20468;-67
2023/10/11 02:14:00;;;;;;;4.43;2.15;;;;;;;18.44;87.05;100310.06;5026437;28;20068;-67
2023/10/11 02:16:28;;;;;;;5.13;2.20;;;;;;;18.47;87.05;100303.78;5028006;28;20516;-66
2023/10/11 02:19:05;;;;;;;6.43;1.95;;;;;;;18.48;87.26;100302.59;5028670;28;20033;-67
2023/10/11 02:21:30;;;;;;;3.67;1.90;;;;;;;18.46;87.50;100299.50;5024086;28;20045;-67
2023/10/11 02:23:57;;;;;;;6.28;2.60;;;;;;;18.44;87.43;100301.88;5024262;28;20048;-67
2023/10/11 02:26:34;;;;;;;5.07;2.10;;;;;;;18.40;87.27;100295.69;5040656;28;20100;-64
2023/10/11 02:29:00;;;;;;;4.40;2.20;;;;;;;18.46;87.26;100299.50;5025313;28;20029;-68
2023/10/11 02:31:31;;;;;;;3.80;1.67;;;;;;;18.42;87.41;100296.03;5024916;28;20041;-67
2023/10/11 02:34:04;;;;;;;5.35;2.17;;;;;;;18.42;87.35;100298.78;5009855;28;20029;-67
2023/10/11 02:36:35;;;;;;;4.55;2.40;;;;;;;18.40;87.53;100299.19;5022194;28;20041;-65
2023/10/11 02:39:05;;;;;;;3.08;1.98;;;;;;;18.43;87.26;100286.69;5008484;28;20040;-66
2023/10/11 02:41:32;;;;;;;4.20;2.38;;;;;;;18.46;87.08;100294.06;5012668;28;20552;-67
2023/10/11 02:43:57;;;;;;;7.47;2.40;;;;;;;18.47;87.35;100295.59;5024669;28;20120;-68
2023/10/11 02:46:26;;;;;;;5.90;2.30;;;;;;;18.45;87.26;100295.22;5023258;28;20084;-68
2023/10/11 02:49:38;;;;;;;6.78;2.40;;;;;;;18.40;87.25;100285.56;5022715;28;20033;-67
2023/10/11 02:51:51;;;;;;;4.28;2.60;;;;;;;18.35;87.70;100296.19;5024723;28;20041;-66
2023/10/11 02:54:17;;;;;;;4.40;2.28;;;;;;;18.38;87.87;100293.38;5025296;28;20041;-68
2023/10/11 02:56:48;;;;;;;8.13;2.33;;;;;;;18.42;87.28;100283.22;5025247;28;20044;-67
2023/10/11 02:59:19;;;;;;;5.78;2.92;;;;;;;18.40;87.43;100284.78;5028415;28;20048;-67
2023/10/11 03:02:01;;;;;;;4.38;2.17;;;;;;;18.41;87.61;100267.22;5024862;28;20034;-67
2023/10/11 03:04:41;;;;;;;5.72;2.38;;;;;;;18.31;87.82;100277.13;5026564;28;20049;-67
2023/10/11 03:07:23;;;;;;;3.78;2.30;;;;;;;18.37;88.01;100285.63;5025858;28;20148;-66
2023/10/11 03:09:50;;;;;;;9.32;2.65;;;;;;;18.36;87.72;100294.97;5027725;28;20041;-68
2023/10/11 03:12:18;;;;;;;4.05;2.10;;;;;;;18.34;87.87;100286.44;5031459;28;20087;-67
2023/10/11 03:14:45;;;;;;;5.60;2.20;;;;;;;18.28;88.28;100272.53;5029283;28;20438;-68
2023/10/11 03:17:14;;;;;;;7.45;2.42;;;;;;;18.26;88.68;100271.38;5033290;28;20029;-67
2023/10/11 03:19:43;;;;;;;7.93;2.25;;;;;;;18.31;88.57;100276.38;5031308;28;20342;-68
2023/10/11 03:22:19;;;;;;;3.58;2.30;;;;;;;18.32;88.01;100278.69;5033107;28;20025;-68
2023/10/11 03:24:49;;;;;;;5.35;2.35;;;;;;;18.32;87.99;100272.47;5033539;28;20034;-67
2023/10/11 03:27:14;;;;;;;6.18;2.58;;;;;;;18.23;88.35;100264.06;5031815;28;20124;-67
2023/10/11 03:29:40;;;;;;;10.80;2.80;;;;;;;18.18;89.13;100268.00;5030958;28;20101;-67
2023/10/11 03:32:05;;;;;;;4.43;2.15;;;;;;;18.22;89.02;100273.41;5033084;28;20743;-67
2023/10/11 03:34:31;;;;;;;4.95;2.42;;;;;;;18.23;88.77;100261.31;5015955;28;20029;-67
2023/10/11 03:36:59;;;;;;;4.22;2.30;;;;;;;18.25;88.71;100256.22;5034550;28;20049;-68
2023/10/11 03:44:40;;;;;;;6.15;2.50;;;;;;;18.25;88.63;100239.88;5030913;28;20536;-67
2023/10/11 03:47:08;;;;;;;4.22;2.65;;;;;;;18.23;88.67;100243.03;5030909;28;20056;-67
2023/10/11 03:52:16;;;;;;;5.40;2.67;;;;;;;18.26;88.75;100244.13;5031628;28;20068;-66
2023/10/11 03:54:42;;;;;;;4.80;2.47;;;;;;;18.22;88.72;100237.97;5033507;28;20032;-67
2023/10/11 03:57:07;;;;;;;10.30;2.55;;;;;;;18.11;89.27;100224.53;5029916;28;20025;-67
2023/10/11 03:59:38;;;;;;;4.13;2.40;;;;;;;18.17;89.05;100224.81;5028964;28;20075;-67
2023/10/11 04:02:04;;;;;;;5.68;2.20;;;;;;;18.25;88.83;100216.13;5020186;28;20409;-68
2023/10/11 04:04:31;;;;;;;6.32;2.45;;;;;;;18.18;88.90;100207.25;5029686;28;20044;-68
2023/10/11 04:07:05;;;;;;;4.32;2.10;;;;;;;18.22;89.00;100218.88;5033601;28;20112;-67
2023/10/11 04:09:33;;;;;;;4.88;2.38;;;;;;;18.17;89.07;100214.69;5031982;28;20077;-68
2023/10/11 04:12:03;;;;;;;6.03;2.47;;;;;;;18.18;88.89;100204.53;5033505;28;20045;-67
2023/10/11 04:14:44;;;;;;;4.47;2.22;;;;;;;18.21;89.28;100209.19;5030725;28;20029;-68
2023/10/11 04:17:38;;;;;;;5.65;2.58;;;;;;;18.25;88.63;100202.47;5032118;28;20047;-67
2023/10/11 04:20:17;;;;;;;3.78;2.17;;;;;;;18.25;88.74;100216.13;5029240;28;20029;-68
2023/10/11 04:23:01;;;;;;;5.72;2.65;;;;;;;18.16;89.21;100210.41;5029092;28;20034;-68
2023/10/11 04:25:32;;;;;;;5.20;1.98;;;;;;;18.14;89.27;100212.78;5027028;28;20564;-68
2023/10/11 04:27:58;;;;;;;;;;;;;;;18.15;89.18;100208.13;5030423;28;20033;-68
2023/10/11 04:33:21;;;;;;;9.05;2.83;;;;;;;18.17;89.28;100203.00;5029061;28;20033;-67
2023/10/11 04:35:55;;;;;;;6.28;2.50;;;;;;;18.21;89.10;100192.81;5031532;28;20051;-67
2023/10/11 04:38:21;;;;;;;5.75;2.92;;;;;;;18.15;89.04;100184.34;5030141;28;20065;-68
2023/10/11 04:40:53;;;;;;;3.78;2.10;;;;;;;18.17;88.90;100194.84;5030385;28;20060;-68
2023/10/11 04:43:25;;;;;;;6.35;3.33;;;;;;;18.14;89.09;100199.16;5026560;28;20057;-68
2023/10/11 04:45:59;;;;;;;9.48;2.45;;;;;;;18.11;89.33;100191.03;5029724;28;20513;-68
2023/10/11 04:48:29;;;;;;;11.25;2.45;;;;;;;18.10;89.38;100181.34;5034093;28;20120;-67
2023/10/11 04:51:04;;;;;;;4.70;2.35;;;;;;;18.08;89.41;100181.75;5029471;28;20125;-67
2023/10/11 04:53:33;;;;;;;5.28;2.50;;;;;;;18.04;90.00;100184.53;5025217;28;20064;-68
2023/10/11 04:55:58;;;;;;;8.38;2.70;;;;;;;18.07;89.89;100190.34;5039771;28;20041;-67
2023/10/11 04:59:06;;;;;;;6.15;2.97;;;;;;;18.10;89.67;100194.97;5029743;28;20516;-66
2023/10/11 05:01:22;;;;;;;3.83;2.00;;;;;;;18.05;89.94;100193.50;5027767;28;20045;-68
2023/10/11 05:03:58;;;;;;;7.50;2.70;;;;;;;17.96;90.21;100187.81;5030615;28;20038;-67
2023/10/11 05:06:31;;;;;;;5.13;2.20;;;;;;;18.00;90.11;100197.44;5024900;28;20061;-68
2023/10/11 05:09:12;;;;;;;5.95;2.67;;;;;;;18.01;89.65;100204.47;5029105;28;20033;-66
2023/10/11 05:11:43;;;;;;;5.75;2.70;;;;;;;17.99;89.77;100203.31;5027323;28;20449;-67
2023/10/11 05:16:59;;;;;;;5.03;2.17;;;;;;;17.96;90.00;100215.06;5028629;28;20033;-66
2023/10/11 05:19:27;;;;;;;4.47;2.28;;;;;;;17.92;90.33;100215.09;5024965;28;20433;-66
2023/10/11 05:21:53;;;;;;;4.38;2.30;;;;;;;17.89;90.46;100207.78;5024133;28;20164;-66
2023/10/11 05:27:11;;;;;;;4.25;2.00;;;;;;;17.89;90.28;100224.13;5025305;28;20419;-66
2023/10/11 05:30:05;;;;;;;6.53;2.80;;;;;;;17.81;90.57;100225.41;5030403;28;20040;-68
2023/10/11 05:32:27;;;;;;;7.75;3.15;;;;;;;17.88;90.34;100217.16;5030655;28;20042;-67
2023/10/11 05:51:26;;;;;;;8.02;2.17;;;;;;;17.91;89.84;100199.94;5029186;28;20120;-66
2023/10/11 05:53:56;;;;;;;4.22;2.42;;;;;;;17.95;89.51;100206.13;5022692;28;20030;-66
2023/10/11 05:56:22;;;;;;;5.03;2.85;;;;;;;18.01;89.52;100212.63;5026423;28;20041;-67
2023/10/11 05:58:51;;;;;;;5.68;2.88;;;;;;;18.00;89.09;100219.25;5027937;28;20556;-67
2023/10/11 06:01:22;;;;;;;6.65;2.80;;;;;;;18.03;89.32;100217.66;5024536;28;20057;-66
2023/10/11 06:03:51;;;;;;;4.00;2.20;;;;;;;18.05;89.12;100228.91;5031062;28;20041;-66
2023/10/11 06:06:23;;;;;;;6.03;2.30;;;;;;;18.07;89.24;100237.44;5023435;28;20075;-66
2023/10/11 06:08:59;;;;;;;7.00;2.63;;;;;;;18.11;89.04;100240.88;5022657;28;20462;-66
2023/10/11 06:11:36;;;;;;;9.40;2.78;;;;;;;18.14;88.96;100231.13;5027043;28;20029;-67
2023/10/11 06:14:05;;;;;;;6.82;2.80;;;;;;;17.98;89.19;100239.94;5023718;28;20037;-68
2023/10/11 06:16:38;;;;;;;9.93;2.60;;;;;;;18.00;89.16;100241.06;5026950;28;20508;-65
2023/10/11 06:19:17;;;;;;;6.00;2.90;;;;;;;18.05;88.98;100237.09;5023215;28;20482;-67
2023/10/11 06:24:33;;;;;;;5.15;2.75;;;;;;;18.09;89.00;100232.34;5017909;28;20117;-68
2023/10/11 06:29:45;;;;;;;10.82;2.85;;;;;;;18.18;88.37;100218.16;5022205;28;20043;-67
2023/10/11 06:32:12;;;;;;;4.30;2.28;;;;;;;18.17;88.62;100222.09;5023606;28;20061;-68
2023/10/11 06:34:38;;;;;;;6.38;2.67;;;;;;;18.21;88.34;100228.25;5023846;28;20104;-65
2023/10/11 06:37:06;;;;;;;5.88;3.25;;;;;;;18.21;88.35;100229.03;5020157;28;20037;-67
2023/10/11 06:42:21;;;;;;;5.55;2.38;;;;;;;18.30;88.02;100209.38;5017533;28;20041;-68
2023/10/11 06:44:57;;;;;;;5.88;2.33;;;;;;;18.36;87.95;100207.72;5027650;28;20033;-67
2023/10/11 06:47:24;;;;;;;5.72;2.63;;;;;;;18.44;87.37;100217.34;5021908;28;20096;-68
2023/10/11 06:49:54;;;;;;;8.80;2.38;;;;;;;18.42;87.49;100222.41;5021254;28;20429;-67
2023/10/11 06:52:25;;;;;;;4.90;2.65;;;;;;;18.46;87.34;100214.97;5040643;28;20045;-67
2023/10/11 06:55:15;;;;;;;5.65;2.80;;;;;;;18.51;86.84;100206.28;5025043;28;20120;-67
2023/10/11 06:57:45;;;;;;;11.25;3.15;;;;;;;18.58;86.73;100198.72;5026789;28;20040;-67
2023/10/11 07:00:20;;;;;;;8.32;2.80;;;;;;;18.59;86.37;100205.75;5025654;28;20030;-67
2023/10/11 07:02:49;;;;;;;9.45;2.70;;;;;;;18.63;86.19;100190.06;5039303;28;20033;-66
2023/10/11 07:05:20;;;;;;;5.15;2.40;;;;;;;18.70;86.19;100202.78;5021414;28;20570;-67
2023/10/11 07:07:52;;;;;;;5.68;2.80;;;;;;;18.80;85.89;100202.59;5023524;28;20605;-66
2023/10/11 07:11:00;;;;;;;4.20;2.30;;;;;;;18.84;85.75;100214.19;5024170;28;20037;-67
2023/10/11 07:13:14;;;;;;;5.63;2.40;;;;;;;18.95;85.24;100210.50;5022415;28;20121;-68
2023/10/11 07:15:44;;;;;;;7.18;2.10;;;;;;;19.02;85.43;100205.63;5023866;28;20062;-67
2023/10/11 07:18:28;;;;;;;4.97;2.72;;;;;;;19.12;84.82;100203.88;5024357;28;20029;-67
2023/10/11 07:21:19;;;;;;;6.63;2.50;;;;;;;19.16;83.80;100221.72;5017313;28;20052;-66
2023/10/11 07:26:48;;;;;;;4.75;2.28;;;;;;;19.17;84.05;100239.63;5024816;28;20030;-67
2023/10/11 07:29:12;;;;;;;4.30;2.22;;;;;;;19.15;84.41;100233.81;5019969;28;20069;-68
2023/10/11 07:31:48;;;;;;;5.07;2.67;;;;;;;19.10;84.63;100228.88;5024292;28;20021;-65
2023/10/11 07:34:17;;;;;;;5.30;2.40;;;;;;;19.15;84.52;100236.56;5018524;28;20045;-67
2023/10/11 07:36:43;;;;;;;5.03;2.17;;;;;;;19.22;84.66;100225.47;5027688;28;20071;-67
2023/10/11 07:42:10;;;;;;;4.82;2.65;;;;;;;19.34;84.05;100226.78;5023452;28;20486;-67
2023/10/11 07:44:39;;;;;;;6.10;3.05;;;;;;;19.39;83.50;100237.25;5024718;28;20417;-66
2023/10/11 07:47:15;;;;;;;6.35;2.75;;;;;;;19.41;83.57;100254.75;5026051;28;20021;-67
2023/10/11 07:49:43;;;;;;;5.32;2.42;;;;;;;19.30;84.27;100247.97;5025867;28;20068;-68
2023/10/11 07:52:09;;;;;;;5.32;2.20;;;;;;;19.35;83.90;100237.31;5028638;28;20041;-67
2023/10/11 07:54:36;;;;;;;7.68;2.35;;;;;;;19.21;85.17;100226.66;5026117;28;20037;-68
2023/10/11 07:57:04;;;;;;;4.45;2.25;;;;;;;19.27;85.27;100233.19;5028878;28;20040;-67
2023/10/11 07:59:30;;;;;;;8.38;3.25;;;;;;;19.32;84.98;100229.16;5010064;28;20030;-67
2023/10/11 08:01:59;;;;;;;7.55;2.95;;;;;;;19.32;84.92;100240.88;5029674;28;20453;-67
2023/10/11 08:04:30;;;;;;;8.00;2.85;;;;;;;19.31;84.90;100247.53;5029170;28;20029;-67
2023/10/11 08:07:00;;;;;;;4.88;2.50;;;;;;;19.26;84.65;100244.53;5030814;28;20064;-66
2023/10/11 08:09:45;;;;;;;5.30;2.35;;;;;;;19.23;84.51;100245.34;5032800;28;20052;-69
2023/10/11 08:12:22;;;;;;;4.93;2.70;;;;;;;19.34;84.64;100243.19;5032076;28;20029;-67
2023/10/11 08:14:48;;;;;;;7.53;2.33;;;;;;;19.37;84.27;100248.59;5026220;28;20103;-66
2023/10/11 08:17:14;;;;;;;3.95;2.22;;;;;;;19.39;84.20;100240.75;5014029;28;20830;-67
2023/10/11 08:19:45;;;;;;;5.68;2.95;;;;;;;19.45;84.31;100244.47;5029239;28;20049;-67
2023/10/11 08:22:15;;;;;;;7.53;2.27;;;;;;;19.39;83.44;100259.88;5031185;28;20040;-67
2023/10/11 08:24:48;;;;;;;4.30;2.50;;;;;;;19.43;84.34;100246.13;5031722;28;20037;-69
2023/10/11 08:27:23;;;;;;;5.78;2.78;;;;;;;19.44;83.86;100232.03;5024434;28;20041;-66
2023/10/11 08:29:54;;;;;;;5.05;2.38;;;;;;;19.53;83.52;100240.41;5027893;28;20041;-68
2023/10/11 08:32:25;;;;;;;;;;;;;;;19.48;83.58;100237.41;5029398;28;20088;-67
2023/10/11 08:34:51;;;;;;;5.50;2.40;;;;;;;19.46;84.30;100226.91;5030816;28;19917;-67
2023/10/11 08:37:17;;;;;;;8.07;2.88;;;;;;;19.49;84.41;100230.78;5029740;28;20474;-66
2023/10/11 08:39:44;;;;;;;9.15;2.75;;;;;;;19.59;84.08;100227.00;5031074;28;20083;-67
2023/10/11 08:42:14;;;;;;;5.97;3.10;;;;;;;19.61;83.73;100230.84;5029519;28;20068;-68
2023/10/11 08:44:47;;;;;;;6.35;2.80;;;;;;;19.66;83.87;100211.22;5031086;28;20092;-68
2023/10/11 08:47:13;;;;;;;6.55;3.20;;;;;;;19.72;83.49;100214.97;5027314;28;20112;-68
2023/10/11 08:49:41;;;;;;;10.05;3.17;;;;;;;19.74;83.59;100209.84;5026924;28;20022;-67
2023/10/11 08:52:10;;;;;;;6.05;2.70;;;;;;;19.88;83.29;100211.47;5024473;28;20033;-67
2023/10/11 08:54:38;;;;;;;5.60;2.85;;;;;;;19.93;83.40;100202.75;5029620;28;20033;-69
2023/10/11 08:57:04;;;;;;;5.78;2.88;;;;;;;19.97;82.98;100197.19;5028350;28;20454;-68
2023/10/11 08:59:31;;;;;;;5.85;3.00;;;;;;;20.01;83.05;100209.59;5029173;28;20083;-67
2023/10/11 09:02:07;;;;;;;5.68;2.72;;;;;;;19.97;83.54;100205.41;5013587;28;20041;-67
2023/10/11 09:04:55;;;;;;;8.40;2.92;;;;;;;19.98;83.54;100212.38;5026179;28;20029;-68
2023/10/11 09:07:37;;;;;;;5.32;2.70;;;;;;;20.17;82.64;100228.69;5012321;28;20030;-66
2023/10/11 09:10:22;;;;;;;5.85;2.75;;;;;;;20.24;82.40;100233.25;5030748;28;20088;-67
2023/10/11 09:12:49;;;;;;;8.35;2.67;;;;;;;20.26;82.14;100228.13;5028958;28;20030;-66
2023/10/11 09:15:16;;;;;;;6.25;2.38;;;;;;;20.23;82.39;100226.22;5026283;28;20052;-68
2023/10/11 09:17:41;;;;;;;4.72;2.58;;;;;;;20.23;82.89;100226.22;5026793;28;20057;-66
2023/10/11 09:20:23;;;;;;;7.00;3.17;;;;;;;20.31;82.70;100205.69;5027053;28;20080;-66
2023/10/11 09:22:55;;;;;;;5.13;2.35;;;;;;;20.39;82.63;100210.56;5026200;28;20025;-65
2023/10/11 09:25:22;;;;;;;10.38;2.80;;;;;;;20.56;82.24;100212.03;5029493;28;20084;-67
2023/10/11 09:27:53;;;;;;;9.75;3.10;;;;;;;20.71;81.82;100203.44;5021214;28;20025;-67
2023/10/11 09:30:20;;;;;;;6.07;2.72;;;;;;;20.83;81.62;100203.44;5026174;28;20097;-67
2023/10/11 09:32:51;;;;;;;6.55;2.90;;;;;;;21.01;80.95;100208.44;5023855;28;20038;-68
2023/10/11 09:35:26;;;;;;;7.50;2.50;;;;;;;21.13;80.73;100205.72;5028451;28;20037;-67
2023/10/11 09:37:54;;;;;;;4.90;2.63;;;;;;;21.21;79.85;100214.50;5026632;28;20034;-68
2023/10/11 09:40:26;;;;;;;9.70;2.88;;;;;;;21.19;79.47;100212.19;5020341;28;20026;-67
2023/10/11 09:42:57;;;;;;;7.20;2.58;;;;;;;21.18;79.45;100213.38;5027342;28;20040;-67
2023/10/11 09:45:29;;;;;;;7.38;2.85;;;;;;;21.30;79.30;100220.84;5028291;28;20462;-67
2023/10/11 09:47:55;;;;;;;6.30;2.55;;;;;;;21.31;79.18;100219.63;5029710;28;20064;-66
2023/10/11 09:50:22;;;;;;;6.97;2.75;;;;;;;21.15;79.17;100218.97;5030247;28;20482;-67
2023/10/11 09:52:51;;;;;;;9.15;3.67;;;;;;;21.28;79.07;100236.97;5031784;28;20112;-67
2023/10/11 09:55:30;;;;;;;10.00;3.30;;;;;;;21.19;78.99;100236.84;5028394;28;20032;-68
2023/10/11 09:58:11;;;;;;;7.65;2.78;;;;;;;21.13;78.97;100237.81;5028064;28;20029;-67
2023/10/11 10:00:43;;;;;;;5.10;2.45;;;;;;;21.00;79.91;100245.97;5027905;28;20157;-67
2023/10/11 10:03:13;;;;;;;8.18;3.05;;;;;;;20.99;79.80;100238.19;5022761;28;20037;-65
2023/10/11 10:06:05;;;;;;;5.90;3.28;;;;;;;20.95;79.90;100243.78;5029424;28;20057;-67
2023/10/11 10:08:30;;;;;;;5.55;2.85;;;;;;;20.90;80.46;100241.59;5022983;28;20116;-66
2023/10/11 10:10:56;;;;;;;7.43;3.05;;;;;;;20.87;80.65;100228.75;5029833;28;20140;-66
2023/10/11 10:13:25;;;;;;;5.72;2.40;;;;;;;20.90;81.01;100247.06;5027384;28;20600;-68
2023/10/11 10:15:52;;;;;;;6.53;3.05;;;;;;;20.87;81.53;100250.66;5028152;28;20045;-67
2023/10/11 10:18:22;;;;;;;5.05;2.92;;;;;;;20.87;81.67;100252.63;5025692;28;20060;-67
2023/10/11 10:21:04;;;;;;;9.43;3.40;;;;;;;20.88;81.46;100254.16;5029649;28;20060;-67
2023/10/11 10:23:38;;;;;;;5.70;2.85;;;;;;;20.86;81.23;100240.94;5028307;28;20033;-66
2023/10/11 10:26:03;;;;;;;5.78;2.75;;;;;;;20.79;81.56;100238.38;5026623;28;20056;-67
2023/10/11 10:28:34;;;;;;;6.03;3.05;;;;;;;20.84;81.54;100235.13;5027258;28;20033;-67
2023/10/11 10:31:10;;;;;;;5.57;2.75;;;;;;;20.78;81.73;100252.50;5041233;28;20033;-66
2023/10/11 10:33:40;;;;;;;4.13;2.50;;;;;;;20.64;82.48;100268.13;5039979;28;20033;-67
2023/10/11 10:36:17;;;;;;;6.63;2.65;;;;;;;20.64;82.86;100270.06;5024788;28;20557;-67
2023/10/11 10:38:58;;;;;;;6.93;3.60;;;;;;;20.67;82.82;100271.97;5028966;28;20045;-66
2023/10/11 10:41:27;;;;;;;8.15;3.00;;;;;;;20.64;83.02;100267.34;5027634;28;20042;-67
2023/10/11 10:44:10;;;;;;;5.30;2.90;;;;;;;20.63;83.44;100277.50;5029440;28;20067;-67
2023/10/11 10:46:44;;;;;;;5.13;2.80;;;;;;;20.62;83.55;100270.50;5026265;28;20405;-67
2023/10/11 10:49:11;;;;;;;8.63;2.92;;;;;;;20.56;83.82;100268.72;5028626;28;20044;-67
2023/10/11 10:51:36;;;;;;;5.95;3.17;;;;;;;20.58;83.67;100277.28;5024396;28;20030;-67
2023/10/11 10:54:25;;;;;;;7.40;3.38;;;;;;;20.55;83.74;100267.22;5025759;28;20094;-68
2023/10/11 10:56:58;;;;;;;8.50;3.70;;;;;;;20.56;83.83;100276.94;5026489;28;20037;-67
2023/10/11 10:59:26;;;;;;;7.50;3.58;;;;;;;20.53;84.05;100277.81;5028063;28;20052;-68
2023/10/11 11:01:53;;;;;;;7.05;3.50;;;;;;;20.55;83.83;100276.19;5025121;28;20070;-67
2023/10/11 11:04:28;;;;;;;8.70;3.33;;;;;;;20.52;84.06;100271.56;5009838;28;20076;-67
2023/10/11 11:06:55;;;;;;;7.40;2.78;;;;;;;20.56;84.16;100277.72;5022069;28;20029;-67
2023/10/11 11:09:28;;;;;;;7.68;3.70;;;;;;;20.53;84.25;100284.06;5030145;28;20068;-68
2023/10/11 11:12:14;;;;;;;9.40;3.67;;;;;;;20.45;84.96;100284.66;5028196;28;20521;-67
2023/10/11 11:14:54;;;;;;;7.38;3.75;;;;;;;20.49;85.05;100285.34;5018293;28;20049;-65
2023/10/11 11:17:23;;;;;;;7.70;3.63;;;;;;;20.44;85.93;100294.09;5017910;28;20060;-66
2023/10/11 11:22:52;;;;;;;9.48;3.72;;;;;;;20.41;86.76;100273.03;5025656;28;20119;-67
2023/10/11 11:28:17;;;;;;;7.43;3.50;;;;;;;20.45;87.09;100266.28;5029073;28;20545;-67
2023/10/11 11:34:15;;;;;;;6.53;2.90;;;;;;;20.53;87.21;100258.66;5028852;28;20096;-67
2023/10/11 11:36:41;;;;;;;9.13;3.75;;;;;;;20.58;87.01;100247.16;5032348;28;20040;-67
2023/10/11 11:39:27;;;;;;;8.25;3.75;;;;;;;20.63;87.01;100257.59;5031683;28;20037;-68
2023/10/11 11:41:57;;;;;;;6.85;3.72;;;;;;;20.71;85.97;100245.25;5030204;28;20060;-68
2023/10/11 11:44:31;;;;;;;4.38;3.35;;;;;;;20.58;86.75;100239.72;5027313;28;20033;-68
2023/10/11 11:47:04;;;;;;;8.65;3.35;;;;;;;20.63;86.09;100238.44;5032842;28;20037;-69
2023/10/11 11:49:29;;;;;;;8.75;3.47;;;;;;;20.66;86.19;100237.56;5031474;28;20060;-68
2023/10/11 11:51:57;;;;;;;10.82;4.55;;;;;;;20.68;86.07;100235.94;5029713;28;20049;-66
2023/10/11 11:54:31;;;;;;;5.03;2.72;;;;;;;20.69;86.37;100226.50;5029765;28;20072;-67
2023/10/11 11:56:57;;;;;;;9.45;3.67;;;;;;;20.73;86.33;100223.69;5031855;28;20116;-67
2023/10/11 11:59:23;;;;;;;10.48;3.45;;;;;;;20.77;86.14;100221.59;5031062;28;20021;-67
2023/10/11 12:01:53;;;;;;;7.22;3.33;;;;;;;20.67;86.07;100211.75;5027253;28;20083;-67
2023/10/11 12:04:38;;;;;;;4.57;2.92;;;;;;;20.68;86.26;100203.09;5047351;28;20025;-67
2023/10/11 12:07:09;;;;;;;8.73;3.08;;;;;;;20.66;86.54;100210.19;5029252;28;20087;-67
2023/10/11 12:09:35;;;;;;;;;;;;;;;20.66;86.74;100197.28;5030946;28;20037;-68
2023/10/11 12:12:07;;;;;;;7.00;3.40;;;;;;;20.61;87.25;100199.78;5032735;28;19987;-67
2023/10/11 12:14:39;;;;;;;10.27;3.28;;;;;;;20.59;86.91;100189.28;5027813;28;20095;-67
2023/10/11 12:17:09;;;;;;;7.68;3.47;;;;;;;20.60;86.87;100195.50;5026815;28;20030;-67
2023/10/11 12:19:42;;;;;;;5.68;3.25;;;;;;;20.62;87.27;100206.78;5030324;28;20140;-67
2023/10/11 12:22:14;;;;;;;7.05;3.20;;;;;;;20.61;87.51;100203.28;5027176;28;20466;-68
2023/10/11 12:24:44;;;;;;;7.30;3.28;;;;;;;20.69;87.31;100193.66;5031875;28;20219;-68
2023/10/11 12:27:11;;;;;;;6.93;3.10;;;;;;;20.71;87.26;100184.28;5031056;28;20047;-68
2023/10/11 12:29:37;;;;;;;8.43;3.08;;;;;;;20.74;87.26;100188.88;5030254;28;20429;-67
2023/10/11 12:32:03;;;;;;;5.15;2.65;;;;;;;20.82;87.21;100182.75;5028270;28;20076;-65
2023/10/11 12:34:28;;;;;;;7.68;3.20;;;;;;;20.85;87.02;100183.88;5031397;28;20029;-67
2023/10/11 12:36:54;;;;;;;6.45;3.13;;;;;;;20.90;87.06;100186.81;5029571;28;20025;-66
2023/10/11 12:39:20;;;;;;;8.55;3.53;;;;;;;20.92;86.81;100189.91;5030968;28;20395;-67
2023/10/11 12:41:50;;;;;;;6.32;3.63;;;;;;;20.93;86.82;100168.75;5030438;28;20064;-67